createdAt,value
2023-05-21T11:47:12.570Z,11.93
2023-05-21T11:49:40.596Z,12.02
2023-05-21T11:52:10.117Z,12.07
2023-05-21T11:54:41.562Z,11.95
2023-05-21T11:57:09.625Z,12.20
2023-05-21T11:59:37.567Z,11.38
2023-05-21T12:02:05.916Z,11.82
2023-05-21T12:04:36.509Z,11.70
2023-05-21T12:07:05.107Z,12.02
2023-05-21T12:11:21.766Z,11.40
2023-05-21T12:13:50.912Z,12.10
2023-05-21T12:17:02.916Z,11.65
2023-05-21T12:19:33.701Z,12.43
2023-05-21T12:22:03.181Z,11.90
2023-05-21T12:24:31.044Z,12.45
2023-05-21T12:27:01.079Z,12.80
2023-05-21T12:29:29.282Z,12.45
2023-05-21T12:32:02.041Z,12.23
2023-05-21T12:34:44.466Z,11.18
2023-05-21T12:37:13.256Z,10.75
2023-05-21T12:39:42.283Z,11.57
2023-05-21T12:42:10.318Z,12.05
2023-05-21T12:44:40.032Z,12.80
2023-05-21T12:47:09.212Z,12.27
2023-05-21T12:49:38.463Z,12.60
2023-05-21T12:52:07.299Z,12.50
2023-05-21T12:54:36.682Z,12.65
2023-05-21T12:57:09.203Z,12.23
2023-05-21T12:59:53.486Z,12.38
2023-05-21T13:03:01.828Z,12.90
2023-05-21T13:07:55.164Z,12.93
2023-05-21T13:12:19.226Z,12.18
2023-05-21T13:14:46.912Z,11.90
2023-05-21T13:17:14.724Z,12.60
2023-05-21T13:19:42.432Z,11.55
2023-05-21T13:22:11.439Z,11.68
2023-05-21T13:24:39.837Z,12.48
2023-05-21T13:27:08.024Z,12.13
2023-05-21T13:29:38.145Z,11.60
2023-05-21T13:32:06.688Z,11.20
2023-05-21T13:34:34.481Z,11.85
2023-05-21T13:37:02.185Z,11.43
2023-05-21T13:39:29.842Z,11.80
2023-05-21T13:41:57.524Z,11.95
2023-05-21T13:44:25.222Z,10.77
2023-05-21T13:46:54.381Z,12.40
2023-05-21T13:49:22.196Z,11.70
2023-05-21T13:51:49.882Z,11.00
2023-05-21T13:54:17.749Z,11.57
2023-05-21T13:56:45.502Z,10.88
2023-05-21T13:59:13.222Z,11.30
2023-05-21T14:01:40.958Z,10.83
2023-05-21T14:04:10.293Z,10.60
2023-05-21T14:06:38.243Z,10.80
2023-05-21T14:09:06.014Z,10.73
2023-05-21T14:11:33.715Z,11.10
2023-05-21T14:14:01.377Z,10.48
2023-05-21T14:16:29.083Z,9.30
2023-05-21T14:18:57.304Z,10.57
2023-05-21T14:21:42.916Z,10.68
2023-05-21T14:24:10.970Z,11.15
2023-05-21T14:29:11.040Z,10.10
2023-05-21T14:31:39.686Z,11.68
2023-05-21T14:34:08.739Z,10.80
2023-05-21T14:36:36.767Z,11.32
2023-05-21T14:39:04.708Z,10.95
2023-05-21T14:41:32.406Z,10.52
2023-05-21T14:44:00.138Z,11.20
2023-05-21T14:46:29.312Z,11.15
2023-05-21T14:48:59.220Z,10.25
2023-05-21T14:51:27.050Z,11.32
2023-05-21T14:53:55.720Z,10.77
2023-05-21T14:56:26.257Z,10.50
2023-05-21T14:58:54.195Z,10.88
2023-05-21T15:01:22.033Z,11.23
2023-05-21T15:03:51.489Z,10.35
2023-05-21T15:06:19.451Z,10.20
2023-05-21T15:08:47.177Z,9.90
2023-05-21T15:11:14.848Z,9.00
2023-05-21T15:23:17.162Z,8.70
2023-05-21T15:25:45.786Z,8.52
2023-05-21T15:32:11.681Z,8.70
2023-05-21T15:34:39.512Z,8.50
2023-05-21T15:37:07.553Z,9.07
2023-05-21T15:39:35.375Z,9.25
2023-05-21T15:42:03.157Z,9.20
2023-05-21T15:44:30.852Z,9.52
2023-05-21T15:46:58.743Z,9.80
2023-05-21T15:49:27.993Z,8.80
2023-05-21T15:51:57.894Z,8.68
2023-05-21T15:54:25.664Z,8.85
2023-05-21T15:56:53.305Z,8.68
2023-05-21T15:59:21.202Z,9.18
2023-05-21T16:01:49.166Z,8.60
2023-05-21T16:04:17.615Z,9.20
2023-05-21T16:06:47.526Z,10.13
2023-05-21T16:09:15.466Z,9.23
2023-05-21T16:11:44.711Z,9.38
2023-05-21T16:28:52.572Z,9.52
2023-05-21T16:31:20.461Z,9.38
2023-05-21T16:33:48.184Z,8.45
2023-05-21T16:36:55.987Z,9.25
2023-05-21T16:40:41.320Z,8.73
2023-05-21T16:43:09.384Z,9.25
2023-05-21T16:45:40.551Z,9.43
2023-05-21T16:50:32.143Z,9.57
2023-05-21T16:53:02.363Z,10.23
2023-05-21T16:55:30.201Z,10.00
2023-05-21T16:57:57.926Z,10.32
2023-05-21T17:00:26.167Z,9.75
2023-05-21T17:02:54.123Z,9.63
2023-05-21T17:05:22.270Z,9.73
2023-05-21T17:07:51.411Z,9.52
2023-05-21T17:10:20.215Z,10.60
2023-05-21T17:15:42.988Z,10.13
2023-05-21T17:18:11.579Z,9.40
2023-05-21T17:20:39.674Z,10.20
2023-05-21T17:23:07.418Z,10.05
2023-05-21T17:25:35.150Z,10.27
2023-05-21T17:28:02.859Z,10.98
2023-05-21T17:30:30.605Z,10.73
2023-05-21T17:33:01.868Z,10.40
2023-05-21T17:35:29.785Z,9.70
2023-05-21T17:37:57.617Z,10.20
2023-05-21T17:40:25.350Z,10.57
2023-05-21T17:42:53.211Z,10.48
2023-05-21T17:45:21.297Z,10.25
2023-05-21T17:47:49.224Z,11.18
2023-05-21T17:50:18.478Z,10.82
2023-05-21T17:52:46.264Z,10.80
2023-05-21T17:55:14.409Z,10.68
2023-05-21T17:57:42.182Z,11.00
2023-05-21T18:00:10.934Z,10.52
2023-05-21T18:02:38.831Z,9.93
2023-05-21T18:05:06.941Z,9.60
2023-05-21T18:07:36.142Z,11.00
2023-05-21T18:10:03.951Z,9.90
2023-05-21T18:12:31.617Z,10.32
2023-05-21T18:14:59.391Z,10.32
2023-05-21T18:17:27.116Z,10.63
2023-05-21T18:21:52.579Z,10.05
2023-05-21T18:24:20.344Z,10.80
2023-05-21T18:26:48.077Z,11.65
2023-05-21T18:29:15.817Z,10.50
2023-05-21T18:31:44.884Z,11.68
2023-05-21T18:34:12.705Z,11.67
2023-05-21T18:36:40.697Z,11.02
2023-05-21T18:39:10.603Z,12.10
2023-05-21T18:41:39.694Z,11.70
2023-05-21T18:44:07.410Z,11.85
2023-05-21T18:46:35.140Z,12.02
2023-05-21T18:49:03.002Z,12.15
2023-05-21T18:51:31.537Z,12.05
2023-05-21T18:53:59.264Z,12.38
2023-05-21T18:56:28.441Z,12.63
2023-05-21T18:58:56.186Z,11.63
2023-05-21T19:01:23.978Z,11.43
2023-05-21T19:03:51.765Z,11.80
2023-05-21T19:06:25.024Z,12.05
2023-05-21T19:08:52.882Z,11.93
2023-05-21T19:11:23.505Z,12.10
2023-05-21T19:13:53.167Z,12.60
2023-05-21T19:16:21.348Z,12.15
2023-05-21T19:18:49.342Z,12.90
2023-05-21T19:21:17.292Z,12.18
2023-05-21T19:23:52.511Z,12.70
2023-05-21T19:26:21.598Z,12.13
2023-05-21T19:28:53.011Z,11.60
2023-05-21T19:31:23.284Z,11.52
2023-05-21T19:33:51.480Z,12.40
2023-05-21T19:36:19.760Z,11.25
2023-05-21T19:38:48.755Z,11.55
2023-05-21T19:41:16.768Z,11.30
2023-05-21T19:43:44.709Z,11.38
2023-05-21T19:46:12.724Z,11.35
2023-05-21T19:48:41.955Z,12.07
2023-05-21T19:51:09.764Z,12.73
2023-05-21T19:53:37.816Z,12.75
2023-05-21T19:56:05.595Z,12.63
2023-05-21T19:58:33.462Z,13.27
2023-05-21T20:01:01.571Z,12.70
2023-05-21T20:03:35.566Z,12.90
2023-05-21T20:06:05.184Z,12.80
2023-05-21T20:08:33.027Z,12.85
2023-05-21T20:11:00.854Z,12.40
2023-05-21T20:13:28.709Z,13.40
2023-05-21T20:15:56.468Z,12.95
2023-05-21T20:18:25.025Z,13.15
2023-05-21T20:20:53.038Z,13.17
2023-05-21T20:23:22.199Z,13.02
2023-05-21T20:25:50.127Z,13.27
2023-05-21T20:28:19.390Z,14.30
2023-05-21T20:30:57.483Z,13.63
2023-05-21T20:33:25.784Z,13.90
2023-05-21T20:35:53.553Z,13.55
2023-05-21T20:38:25.652Z,15.32
2023-05-21T20:40:53.454Z,15.27
2023-05-21T20:43:21.713Z,15.77
2023-05-21T20:45:50.032Z,14.88
2023-05-21T20:48:18.358Z,15.18
2023-05-21T20:50:46.302Z,16.02
2023-05-21T20:53:15.882Z,15.97
2023-05-21T20:55:46.935Z,15.40
2023-05-21T20:58:14.676Z,16.30
2023-05-21T21:00:44.936Z,16.08
2023-05-21T21:03:12.772Z,16.45
2023-05-21T21:05:40.652Z,15.75
2023-05-21T21:08:08.438Z,16.27
2023-05-21T21:10:36.404Z,16.00
2023-05-21T21:13:07.133Z,15.55
2023-05-21T21:15:34.883Z,15.02
2023-05-21T21:18:02.650Z,15.85
2023-05-21T21:20:30.429Z,15.27
2023-05-21T21:22:58.221Z,13.98
2023-05-21T21:25:25.932Z,13.52
2023-05-21T21:27:53.691Z,14.07
2023-05-21T21:30:22.843Z,14.35
2023-05-21T21:32:50.678Z,15.18
2023-05-21T21:35:18.558Z,15.70
2023-05-21T21:37:46.354Z,15.48
2023-05-21T21:40:15.098Z,15.70
2023-05-21T21:42:43.310Z,15.02
2023-05-21T21:45:12.282Z,15.05
2023-05-21T21:47:41.560Z,15.65
2023-05-21T21:50:09.992Z,16.83
2023-05-21T21:52:40.062Z,14.68
2023-05-21T21:55:09.918Z,14.93
2023-05-21T21:57:39.331Z,13.83
2023-05-21T22:00:11.484Z,13.90
2023-05-21T22:02:40.182Z,14.67
2023-05-21T22:05:09.932Z,13.38
2023-05-21T22:07:38.722Z,13.00
2023-05-21T22:10:07.465Z,11.95
2023-05-21T22:12:35.242Z,10.98
2023-05-21T22:15:05.316Z,10.00
2023-05-21T22:17:34.524Z,10.40
2023-05-21T22:20:02.422Z,10.85
2023-05-21T22:22:31.792Z,9.90
2023-05-21T22:24:59.491Z,9.68
2023-05-21T22:27:27.406Z,8.90
2023-05-21T22:29:55.178Z,9.02
2023-05-21T22:32:22.924Z,8.40
2023-05-21T22:34:50.719Z,9.38
2023-05-21T22:37:19.068Z,9.18
2023-05-21T22:39:48.258Z,8.98
2023-05-21T22:42:16.018Z,8.73
2023-05-21T22:44:43.815Z,9.30
2023-05-21T22:47:11.528Z,9.05
2023-05-21T22:49:40.593Z,9.03
2023-05-21T22:52:09.356Z,9.40
2023-05-21T22:54:37.345Z,8.88
2023-05-21T22:57:06.848Z,8.90
2023-05-21T22:59:34.561Z,9.00
2023-05-21T23:02:02.435Z,9.02
2023-05-21T23:04:43.193Z,9.10
2023-05-21T23:07:12.006Z,9.45
2023-05-21T23:09:39.724Z,9.25
2023-05-21T23:12:10.698Z,9.18
2023-05-21T23:14:38.532Z,9.80
2023-05-21T23:17:07.500Z,9.90
2023-05-21T23:19:35.480Z,9.57
2023-05-21T23:22:03.427Z,9.70
2023-05-21T23:24:31.220Z,9.90
2023-05-21T23:27:02.769Z,10.02
2023-05-21T23:29:31.934Z,10.10
2023-05-21T23:32:00.902Z,10.10
2023-05-21T23:34:28.817Z,10.27
2023-05-21T23:36:58.738Z,10.43
2023-05-21T23:39:28.489Z,9.68
2023-05-21T23:41:56.399Z,9.95
2023-05-21T23:44:24.123Z,10.00
2023-05-21T23:46:53.332Z,10.45
2023-05-21T23:49:21.034Z,10.15
2023-05-21T23:51:50.590Z,11.20
2023-05-21T23:54:18.621Z,10.45
2023-05-21T23:56:46.497Z,10.63
2023-05-21T23:59:16.161Z,10.77
